createdAt,value
2023-04-15T00:00:01.350Z,5.2342
2023-04-15T00:01:03.039Z,5.2502
2023-04-15T00:02:04.708Z,5.2277
2023-04-15T00:03:06.476Z,5.2394
2023-04-15T00:04:08.056Z,5.2316
2023-04-15T00:05:09.624Z,5.2246
2023-04-15T00:06:11.324Z,5.2198
2023-04-15T00:07:12.966Z,5.2192
2023-04-15T00:08:14.572Z,5.1942
2023-04-15T00:09:16.254Z,5.1660
2023-04-15T00:10:17.894Z,5.1465
2023-04-15T00:11:19.585Z,5.1769
2023-04-15T00:12:21.189Z,5.1942
2023-04-15T00:13:22.825Z,5.1627
2023-04-15T00:14:24.526Z,5.1712
2023-04-15T00:15:26.099Z,5.1693
2023-04-15T00:16:27.840Z,5.1556
2023-04-15T00:17:29.503Z,5.1769
2023-04-15T00:18:31.083Z,5.1595
2023-04-15T00:19:32.809Z,5.1541
2023-04-15T00:20:34.402Z,5.1482
2023-04-15T00:21:36.083Z,5.1330
2023-04-15T00:22:37.746Z,5.1155
2023-04-15T00:23:39.387Z,5.1241
2023-04-15T00:24:41.004Z,5.1597
2023-04-15T00:25:42.662Z,5.1923
2023-04-15T00:26:44.401Z,5.2096
2023-04-15T00:27:45.962Z,5.2632
2023-04-15T00:28:47.651Z,5.2825
2023-04-15T00:29:49.363Z,5.3184
2023-04-15T00:30:51.058Z,5.3246
2023-04-15T00:31:52.704Z,5.2987
2023-04-15T00:32:54.391Z,5.3061
2023-04-15T00:33:55.965Z,5.3162
2023-04-15T00:34:57.712Z,5.2975
2023-04-15T00:35:59.329Z,5.3417
2023-04-15T00:37:00.980Z,5.3435
2023-04-15T00:38:02.663Z,5.3862
2023-04-15T00:39:04.240Z,5.3655
2023-04-15T00:40:05.969Z,5.4055
2023-04-15T00:41:07.590Z,5.3870
2023-04-15T00:42:09.288Z,5.4152
2023-04-15T00:43:10.907Z,5.4476
2023-04-15T00:44:12.553Z,5.4472
2023-04-15T00:45:14.220Z,5.4571
2023-04-15T00:46:15.907Z,5.4690
2023-04-15T00:47:17.565Z,5.4727
2023-04-15T00:48:19.153Z,5.4780
2023-04-15T00:49:20.794Z,5.4992
2023-04-15T00:50:22.417Z,5.4908
2023-04-15T00:51:24.109Z,5.5156
2023-04-15T00:52:25.778Z,5.5298
2023-04-15T00:53:27.449Z,5.5781
2023-04-15T00:54:29.081Z,5.6093
2023-04-15T00:55:30.688Z,5.6333
2023-04-15T00:56:32.350Z,5.6436
2023-04-15T00:57:34.080Z,5.6590
2023-04-15T00:58:35.591Z,5.7141
2023-04-15T00:59:37.213Z,5.7227
2023-04-15T01:00:38.877Z,5.7391
2023-04-15T01:01:40.571Z,5.7375
2023-04-15T01:02:42.322Z,5.7539
2023-04-15T01:03:44.027Z,5.7461
2023-04-15T01:04:45.471Z,5.7767
2023-04-15T01:05:47.132Z,5.7892
2023-04-15T01:06:48.831Z,5.8307
2023-04-15T01:07:50.488Z,5.8449
2023-04-15T01:08:52.108Z,5.8716
2023-04-15T01:09:53.778Z,5.8786
2023-04-15T01:10:55.426Z,5.9012
2023-04-15T01:11:57.088Z,5.9096
2023-04-15T01:12:58.780Z,5.9410
2023-04-15T01:14:00.427Z,5.9423
2023-04-15T01:15:02.048Z,5.9466
2023-04-15T01:16:03.772Z,5.9402
2023-04-15T01:17:05.389Z,5.9334
2023-04-15T01:18:07.059Z,5.9433
2023-04-15T01:19:08.662Z,5.9702
2023-04-15T01:20:10.330Z,5.9951
2023-04-15T01:21:12.030Z,6.0251
2023-04-15T01:22:13.626Z,6.0271
2023-04-15T01:23:15.291Z,6.0585
2023-04-15T01:24:16.969Z,6.0670
2023-04-15T01:25:18.669Z,6.1093
2023-04-15T01:26:20.273Z,6.1251
2023-04-15T01:27:21.926Z,6.1292
2023-04-15T01:28:23.593Z,6.1471
2023-04-15T01:29:25.228Z,6.1635
2023-04-15T01:30:26.870Z,6.1752
2023-04-15T01:31:28.602Z,6.1882
2023-04-15T01:32:30.206Z,6.2070
2023-04-15T01:33:31.985Z,6.1984
2023-04-15T01:34:35.632Z,6.2251
2023-04-15T01:35:35.262Z,6.2264
2023-04-15T01:36:36.888Z,6.2356
2023-04-15T01:37:38.470Z,6.2477
2023-04-15T01:38:40.129Z,6.2533
2023-04-15T01:39:41.744Z,6.2615
2023-04-15T01:40:43.421Z,6.2516
2023-04-15T01:41:45.063Z,6.2750
2023-04-15T01:42:46.715Z,6.2738
2023-04-15T01:43:48.406Z,6.3017
2023-04-15T01:44:50.027Z,6.3375
2023-04-15T01:45:51.710Z,6.3243
2023-04-15T01:46:53.423Z,6.3547
2023-04-15T01:47:55.014Z,6.3751
2023-04-15T01:48:56.733Z,6.2865
2023-04-15T01:49:58.311Z,6.3112
2023-04-15T01:50:59.928Z,6.1678
2023-04-15T01:52:01.695Z,6.1588
2023-04-15T01:53:03.236Z,6.0608
2023-04-15T01:54:04.985Z,6.1495
2023-04-15T01:55:06.590Z,6.1243
2023-04-15T01:56:08.190Z,6.1350
2023-04-15T01:57:09.883Z,6.1787
2023-04-15T01:58:11.491Z,6.2198
2023-04-15T01:59:13.198Z,6.2251
2023-04-15T02:00:14.810Z,6.2389
2023-04-15T02:01:16.499Z,6.2683
2023-04-15T02:02:18.136Z,6.2769
2023-04-15T02:03:19.904Z,6.2941
2023-04-15T02:04:21.453Z,6.3128
2023-04-15T02:05:23.061Z,6.3237
2023-04-15T02:06:24.712Z,6.3118
2023-04-15T02:07:26.371Z,6.3213
2023-04-15T02:08:28.032Z,6.3342
2023-04-15T02:09:29.695Z,6.3490
2023-04-15T02:10:31.298Z,6.3543
2023-04-15T02:11:32.976Z,6.3833
2023-04-15T02:12:34.616Z,6.3753
2023-04-15T02:13:36.320Z,6.3656
2023-04-15T02:14:37.982Z,6.4018
2023-04-15T02:15:39.581Z,6.4040
2023-04-15T02:16:41.321Z,6.3890
2023-04-15T02:17:42.946Z,6.4044
2023-04-15T02:18:44.581Z,6.3890
2023-04-15T02:19:46.221Z,6.3942
2023-04-15T02:20:47.847Z,6.4022
2023-04-15T02:21:49.504Z,6.4038
2023-04-15T02:22:51.156Z,6.4357
2023-04-15T02:23:54.011Z,6.4387
2023-04-15T02:24:54.530Z,6.4702
2023-04-15T02:25:56.120Z,6.4720
2023-04-15T02:26:57.774Z,6.4712
2023-04-15T02:28:00.400Z,6.4659
2023-04-15T02:29:01.274Z,6.4677
2023-04-15T02:30:02.859Z,6.4486
2023-04-15T02:31:04.469Z,6.4387
2023-04-15T02:32:06.275Z,6.3903
2023-04-15T02:33:07.782Z,6.3504
2023-04-15T02:34:09.477Z,6.3149
2023-04-15T02:35:11.139Z,6.2750
2023-04-15T02:36:12.780Z,6.3414
2023-04-15T02:37:14.429Z,6.3192
2023-04-15T02:38:16.083Z,6.3297
2023-04-15T02:39:17.717Z,6.3664
2023-04-15T02:40:19.297Z,6.3309
2023-04-15T02:41:20.934Z,6.3662
2023-04-15T02:42:22.621Z,6.3305
2023-04-15T02:43:24.261Z,6.2896
2023-04-15T02:44:25.935Z,6.2403
2023-04-15T02:45:27.628Z,6.1779
2023-04-15T02:46:29.337Z,6.2272
2023-04-15T02:47:30.943Z,6.2188
2023-04-15T02:48:32.557Z,6.2941
2023-04-15T02:49:34.180Z,6.3028
2023-04-15T02:50:35.878Z,6.2865
2023-04-15T02:51:37.454Z,6.3395
2023-04-15T02:52:39.116Z,6.3732
2023-04-15T02:53:40.790Z,6.3985
2023-04-15T02:54:42.426Z,6.4030
2023-04-15T02:55:44.133Z,6.4186
2023-04-15T02:56:45.715Z,6.4527
2023-04-15T02:57:47.378Z,6.4316
2023-04-15T02:58:49.076Z,6.4568
2023-04-15T02:59:50.688Z,6.4601
2023-04-15T03:00:52.389Z,6.4702
2023-04-15T03:01:54.156Z,6.4494
2023-04-15T03:02:55.769Z,6.4895
2023-04-15T03:03:57.443Z,6.4946
2023-04-15T03:04:58.935Z,6.5065
2023-04-15T03:06:00.631Z,6.4979
2023-04-15T03:07:02.246Z,6.5154
2023-04-15T03:08:03.924Z,6.5361
2023-04-15T03:09:05.548Z,6.5363
2023-04-15T03:10:07.208Z,6.5396
2023-04-15T03:11:08.891Z,6.5349
2023-04-15T03:12:10.493Z,6.5357
2023-04-15T03:13:12.098Z,6.5583
2023-04-15T03:14:13.763Z,6.5694
2023-04-15T03:15:15.537Z,6.5618
2023-04-15T03:16:17.263Z,6.5421
2023-04-15T03:17:18.792Z,6.5195
2023-04-15T03:18:20.589Z,6.5447
2023-04-15T03:19:22.073Z,6.5564
2023-04-15T03:20:23.808Z,6.5143
2023-04-15T03:21:25.483Z,6.5386
2023-04-15T03:22:27.052Z,6.5468
2023-04-15T03:23:28.737Z,6.5336
2023-04-15T03:24:30.369Z,6.5562
2023-04-15T03:25:32.111Z,6.5567
2023-04-15T03:26:33.739Z,6.5737
2023-04-15T03:27:35.372Z,6.5583
2023-04-15T03:28:36.971Z,6.5692
2023-04-15T03:29:38.622Z,6.5944
2023-04-15T03:30:40.353Z,6.5412
2023-04-15T03:31:42.032Z,6.4667
2023-04-15T03:32:43.563Z,6.4778
2023-04-15T03:33:45.215Z,6.5037
2023-04-15T03:34:46.891Z,6.5133
2023-04-15T03:35:48.491Z,6.5250
2023-04-15T03:36:50.234Z,6.5680
2023-04-15T03:37:51.771Z,6.5593
2023-04-15T03:38:53.414Z,6.5636
2023-04-15T03:39:55.107Z,6.6080
2023-04-15T03:40:56.711Z,6.6084
2023-04-15T03:41:58.428Z,6.6090
2023-04-15T03:43:00.130Z,6.6004
2023-04-15T03:44:01.574Z,6.6057
2023-04-15T03:45:03.275Z,6.5741
2023-04-15T03:46:04.951Z,6.5449
2023-04-15T03:47:06.633Z,6.5437
2023-04-15T03:48:17.060Z,6.5764
2023-04-15T03:49:09.862Z,6.6031
2023-04-15T03:50:11.494Z,6.5967
2023-04-15T03:51:13.114Z,6.6012
2023-04-15T03:52:14.764Z,6.6267
2023-04-15T03:53:16.412Z,6.6094
2023-04-15T03:54:18.078Z,6.6212
2023-04-15T03:55:19.720Z,6.6396
2023-04-15T03:56:21.344Z,6.6431
2023-04-15T03:57:23.007Z,6.6378
2023-04-15T03:58:24.648Z,6.6485
2023-04-15T03:59:26.271Z,6.6659
2023-04-15T04:00:27.955Z,6.6511
2023-04-15T04:01:29.570Z,6.6721
2023-04-15T04:02:31.335Z,6.6507
2023-04-15T04:03:32.951Z,6.6670
2023-04-15T04:04:34.558Z,6.6815
2023-04-15T04:05:36.152Z,6.6891
2023-04-15T04:06:37.803Z,6.6172
2023-04-15T04:07:39.473Z,6.6300
2023-04-15T04:08:41.111Z,6.5998
2023-04-15T04:09:42.734Z,6.5850
2023-04-15T04:10:44.394Z,6.5795
2023-04-15T04:11:46.031Z,6.6111
2023-04-15T04:12:47.782Z,6.6055
2023-04-15T04:13:49.347Z,6.6476
2023-04-15T04:14:50.947Z,6.6121
2023-04-15T04:15:52.657Z,6.5655
2023-04-15T04:16:54.319Z,6.5433
2023-04-15T04:17:55.993Z,6.5671
2023-04-15T04:18:57.583Z,6.5908
2023-04-15T04:19:59.324Z,6.6234
2023-04-15T04:21:00.947Z,6.6099
2023-04-15T04:22:02.705Z,6.6078
2023-04-15T04:23:04.313Z,6.6010
2023-04-15T04:24:05.830Z,6.6074
2023-04-15T04:25:07.440Z,6.5700
2023-04-15T04:26:09.142Z,6.5731
2023-04-15T04:27:10.797Z,6.6368
2023-04-15T04:28:12.416Z,6.6175
2023-04-15T04:29:14.051Z,6.6320
2023-04-15T04:30:15.715Z,6.6682
2023-04-15T04:31:17.420Z,6.6702
2023-04-15T04:32:19.069Z,6.6608
2023-04-15T04:33:20.656Z,6.6614
2023-04-15T04:34:22.312Z,6.6688
2023-04-15T04:35:23.956Z,6.6493
2023-04-15T04:36:25.579Z,6.6614
2023-04-15T04:37:27.313Z,6.6542
2023-04-15T04:38:28.880Z,6.6585
2023-04-15T04:39:30.570Z,6.6540
2023-04-15T04:40:32.166Z,6.6216
2023-04-15T04:41:33.838Z,6.6269
2023-04-15T04:42:36.803Z,6.6384
2023-04-15T04:43:37.128Z,6.6571
2023-04-15T04:44:38.779Z,6.5998
2023-04-15T04:45:40.464Z,6.5486
2023-04-15T04:46:42.085Z,6.5209
2023-04-15T04:47:43.836Z,6.5359
2023-04-15T04:49:00.000Z,6.5827
2023-04-15T04:49:47.062Z,6.5499
2023-04-15T04:50:48.665Z,6.4768
2023-04-15T04:51:50.368Z,6.5766
2023-04-15T04:52:52.024Z,6.5957
2023-04-15T04:53:53.655Z,6.6209
2023-04-15T04:54:55.278Z,6.6563
2023-04-15T04:55:56.928Z,6.6723
2023-04-15T04:56:58.588Z,6.6883
2023-04-15T04:58:00.268Z,6.6906
2023-04-15T04:59:02.130Z,6.7103
2023-04-15T05:00:03.608Z,6.7294
2023-04-15T05:01:05.316Z,6.7144
2023-04-15T05:02:06.930Z,6.7292
2023-04-15T05:03:08.763Z,6.7356
2023-04-15T05:04:10.396Z,6.7530
2023-04-15T05:05:11.882Z,6.8003
2023-04-15T05:06:13.525Z,6.8249
2023-04-15T05:07:15.160Z,6.8062
2023-04-15T05:08:16.856Z,6.7803
2023-04-15T05:09:18.548Z,6.7693
2023-04-15T05:10:20.145Z,6.7822
2023-04-15T05:11:21.874Z,6.7914
2023-04-15T05:12:23.435Z,6.8251
2023-04-15T05:13:25.145Z,6.8752
2023-04-15T05:14:26.752Z,6.8666
2023-04-15T05:15:28.539Z,6.8902
2023-04-15T05:16:29.912Z,6.8923
2023-04-15T05:17:31.779Z,6.9293
2023-04-15T05:18:33.419Z,6.9504
2023-04-15T05:19:35.003Z,6.9695
2023-04-15T05:20:36.623Z,6.9925
2023-04-15T05:21:39.512Z,7.0201
2023-04-15T05:22:39.954Z,7.0215
2023-04-15T05:23:41.624Z,7.0412
2023-04-15T05:24:43.294Z,7.0162
2023-04-15T05:25:44.907Z,6.9634
2023-04-15T05:26:46.589Z,7.0141
2023-04-15T05:27:48.132Z,7.0157
2023-04-15T05:28:49.729Z,7.0381
2023-04-15T05:29:51.407Z,6.9880
2023-04-15T05:30:53.069Z,6.9184
2023-04-15T05:31:54.660Z,6.9529
2023-04-15T05:32:56.329Z,6.9634
2023-04-15T05:33:58.003Z,6.9689
2023-04-15T05:34:59.628Z,7.0359
2023-04-15T05:36:01.219Z,7.0644
2023-04-15T05:37:02.918Z,7.0917
2023-04-15T05:38:04.564Z,7.1357
2023-04-15T05:39:06.332Z,7.1271
2023-04-15T05:40:07.953Z,7.1162
2023-04-15T05:41:09.638Z,7.1291
2023-04-15T05:42:11.249Z,7.0572
2023-04-15T05:43:12.864Z,7.0800
2023-04-15T05:44:14.605Z,7.1330
2023-04-15T05:45:16.192Z,7.1790
2023-04-15T05:46:18.002Z,7.2491
2023-04-15T05:47:19.576Z,7.2569
2023-04-15T05:48:21.167Z,7.2557
2023-04-15T05:49:22.840Z,7.2762
2023-04-15T05:50:24.431Z,7.3243
2023-04-15T05:51:26.085Z,7.3485
2023-04-15T05:52:27.704Z,7.3779
2023-04-15T05:53:29.358Z,7.3678
2023-04-15T05:54:31.056Z,7.3526
2023-04-15T05:55:32.673Z,7.4243
2023-04-15T05:56:34.311Z,7.4305
2023-04-15T05:57:36.029Z,7.4340
2023-04-15T05:58:37.712Z,7.4600
2023-04-15T05:59:39.352Z,7.4835
2023-04-15T06:00:41.009Z,7.5227
2023-04-15T06:01:42.590Z,7.5636
2023-04-15T06:02:44.420Z,7.6123
2023-04-15T06:03:46.110Z,7.6673
2023-04-15T06:04:47.643Z,7.6759
2023-04-15T06:05:49.212Z,7.6521
2023-04-15T06:06:50.868Z,7.6509
2023-04-15T06:07:52.443Z,7.7222
2023-04-15T06:08:54.116Z,7.7977
2023-04-15T06:09:55.801Z,7.8493
2023-04-15T06:10:57.402Z,7.8588
2023-04-15T06:11:59.060Z,7.9269
2023-04-15T06:13:00.700Z,8.0196
2023-04-15T06:14:02.387Z,8.1026
2023-04-15T06:15:04.034Z,8.1447
2023-04-15T06:16:05.701Z,8.1938
2023-04-15T06:17:07.315Z,8.2521
2023-04-15T06:18:08.936Z,8.3049
2023-04-15T06:19:10.642Z,8.3645
2023-04-15T06:20:12.273Z,8.4300
2023-04-15T06:21:13.914Z,8.4805
2023-04-15T06:22:15.559Z,8.5290
2023-04-15T06:23:17.247Z,8.5723
2023-04-15T06:24:18.856Z,8.6064
2023-04-15T06:25:20.533Z,8.5925
2023-04-15T06:26:22.179Z,8.5841
2023-04-15T06:27:23.805Z,8.6336
2023-04-15T06:28:25.460Z,8.6309
2023-04-15T06:29:27.152Z,8.6746
2023-04-15T06:30:28.772Z,8.7289
2023-04-15T06:31:30.508Z,8.7695
2023-04-15T06:32:32.120Z,8.8322
2023-04-15T06:33:33.704Z,8.8449
2023-04-15T06:34:35.406Z,8.8116
2023-04-15T06:35:37.025Z,8.8731
2023-04-15T06:36:38.660Z,8.9236
2023-04-15T06:37:40.357Z,8.9669
2023-04-15T06:38:41.969Z,8.9977
2023-04-15T06:39:43.683Z,9.0992
2023-04-15T06:40:45.301Z,9.1516
2023-04-15T06:41:46.929Z,9.1487
2023-04-15T06:42:48.613Z,9.1917
2023-04-15T06:43:50.254Z,9.2186
2023-04-15T06:44:51.942Z,9.2716
2023-04-15T06:45:53.538Z,9.2835
2023-04-15T06:46:55.193Z,9.2755
2023-04-15T06:47:56.896Z,9.2541
2023-04-15T06:48:59.596Z,9.2202
2023-04-15T06:50:00.295Z,9.1875
2023-04-15T06:51:01.892Z,9.1949
2023-04-15T06:52:03.534Z,9.2331
2023-04-15T06:53:05.198Z,9.2557
2023-04-15T06:54:06.836Z,9.3022
2023-04-15T06:55:08.550Z,9.3358
2023-04-15T06:56:10.197Z,9.3305
2023-04-15T06:57:11.795Z,9.2866
2023-04-15T06:58:13.472Z,9.2368
2023-04-15T06:59:15.129Z,9.2446
2023-04-15T07:00:16.801Z,9.2652
2023-04-15T07:01:18.494Z,9.2594
2023-04-15T07:02:20.175Z,9.2066
2023-04-15T07:03:21.700Z,9.2110
2023-04-15T07:04:23.397Z,9.2284
2023-04-15T07:05:25.091Z,9.2629
2023-04-15T07:06:26.700Z,9.3198
2023-04-15T07:07:28.369Z,9.3667
2023-04-15T07:08:29.958Z,9.4043
2023-04-15T07:09:31.581Z,9.4314
2023-04-15T07:10:33.390Z,9.4926
2023-04-15T07:11:34.920Z,9.5423
2023-04-15T07:12:36.563Z,9.5476
2023-04-15T07:13:38.181Z,9.5528
2023-04-15T07:14:39.812Z,9.5641
2023-04-15T07:15:41.505Z,9.5908
2023-04-15T07:16:43.187Z,9.6012
2023-04-15T07:17:44.787Z,9.6524
2023-04-15T07:18:46.371Z,9.6978
2023-04-15T07:19:48.035Z,9.7512
2023-04-15T07:20:49.746Z,9.7982
2023-04-15T07:21:51.350Z,9.8116
2023-04-15T07:22:52.954Z,9.8432
2023-04-15T07:23:54.774Z,9.8642
2023-04-15T07:24:56.268Z,9.8543
2023-04-15T07:25:57.950Z,9.8644
2023-04-15T07:27:01.014Z,9.8650
2023-04-15T07:28:01.309Z,9.9560
2023-04-15T07:29:03.183Z,10.0010
2023-04-15T07:30:04.551Z,9.9225
2023-04-15T07:31:06.282Z,9.9798
2023-04-15T07:32:07.975Z,9.9679
2023-04-15T07:33:09.501Z,10.0624
2023-04-15T07:34:11.172Z,10.0648
2023-04-15T07:35:12.823Z,9.9956
2023-04-15T07:36:14.506Z,10.0856
2023-04-15T07:37:16.102Z,10.0864
2023-04-15T07:38:17.742Z,10.0646
2023-04-15T07:39:19.444Z,9.9763
2023-04-15T07:40:21.052Z,9.9819
2023-04-15T07:41:22.764Z,10.0143
2023-04-15T07:42:24.338Z,10.0357
2023-04-15T07:43:26.058Z,10.0677
2023-04-15T07:44:27.716Z,10.1041
2023-04-15T07:45:29.279Z,10.0961
2023-04-15T07:46:30.997Z,10.0681
2023-04-15T07:47:32.660Z,10.0770
2023-04-15T07:48:35.613Z,10.0877
2023-04-15T07:49:35.856Z,10.0229
2023-04-15T07:50:37.429Z,9.9915
2023-04-15T07:51:39.047Z,9.9309
2023-04-15T07:52:40.693Z,9.8835
2023-04-15T07:53:42.327Z,9.8707
2023-04-15T07:54:44.005Z,9.8364
2023-04-15T07:55:45.657Z,9.8763
2023-04-15T07:56:47.366Z,9.9202
2023-04-15T07:57:48.943Z,9.8709
2023-04-15T07:58:50.604Z,9.8853
2023-04-15T07:59:52.242Z,9.8695
2023-04-15T08:00:53.872Z,9.8364
2023-04-15T08:01:55.593Z,9.7426
2023-04-15T08:02:57.321Z,9.6146
2023-04-15T08:03:58.889Z,9.6427
2023-04-15T08:05:00.493Z,9.6218
2023-04-15T08:06:02.095Z,9.5702
2023-04-15T08:07:03.752Z,9.5263
2023-04-15T08:08:05.386Z,9.4455
2023-04-15T08:09:07.252Z,9.5431
2023-04-15T08:10:08.678Z,9.4805
2023-04-15T08:11:10.539Z,9.5445
2023-04-15T08:12:12.002Z,9.6138
2023-04-15T08:13:13.605Z,9.6795
2023-04-15T08:14:15.237Z,9.6742
2023-04-15T08:15:16.896Z,9.6647
2023-04-15T08:16:18.631Z,9.6719
2023-04-15T08:17:20.235Z,9.7779
2023-04-15T08:18:21.934Z,9.8106
2023-04-15T08:19:23.477Z,9.7726
2023-04-15T08:20:25.137Z,9.7756
2023-04-15T08:21:26.755Z,9.8364
2023-04-15T08:22:28.482Z,9.8824
2023-04-15T08:23:30.061Z,9.9106
2023-04-15T08:24:31.709Z,9.9416
2023-04-15T08:25:33.430Z,9.9903
2023-04-15T08:26:35.050Z,10.0377
2023-04-15T08:27:36.756Z,10.0351
2023-04-15T08:28:38.345Z,10.0441
2023-04-15T08:29:39.993Z,10.0550
2023-04-15T08:30:41.646Z,10.1031
2023-04-15T08:31:43.354Z,10.1676
2023-04-15T08:32:45.049Z,10.2475
2023-04-15T08:33:46.594Z,10.2859
2023-04-15T08:34:48.257Z,10.2861
2023-04-15T08:35:49.862Z,10.3383
2023-04-15T08:36:51.590Z,10.3352
2023-04-15T08:37:53.220Z,10.3284
2023-04-15T08:38:54.854Z,10.3481
2023-04-15T08:39:56.480Z,10.3943
2023-04-15T08:40:58.093Z,10.3606
2023-04-15T08:41:59.721Z,10.3144
2023-04-15T08:43:01.401Z,10.3888
2023-04-15T08:44:03.067Z,10.3888
2023-04-15T08:45:04.685Z,10.3812
2023-04-15T08:46:06.230Z,10.3997
2023-04-15T08:47:07.983Z,10.3187
2023-04-15T08:48:09.574Z,10.3465
2023-04-15T08:49:11.162Z,10.3988
2023-04-15T08:50:12.817Z,10.3639
2023-04-15T08:51:14.483Z,10.3510
2023-04-15T08:52:16.129Z,10.3750
2023-04-15T08:53:17.741Z,10.3873
2023-04-15T08:54:19.413Z,10.4140
2023-04-15T08:55:21.025Z,10.4414
2023-04-15T08:56:22.698Z,10.4874
2023-04-15T08:57:24.321Z,10.4903
2023-04-15T08:58:25.987Z,10.5052
2023-04-15T08:59:27.587Z,10.5509
2023-04-15T09:00:29.244Z,10.5989
2023-04-15T09:01:30.935Z,10.5344
2023-04-15T09:02:32.620Z,10.4956
2023-04-15T09:03:34.356Z,10.3391
2023-04-15T09:04:35.796Z,10.2990
2023-04-15T09:05:37.485Z,10.3765
2023-04-15T09:06:39.074Z,10.4890
2023-04-15T09:07:40.718Z,10.4662
2023-04-15T09:08:42.399Z,10.4738
2023-04-15T09:09:44.005Z,10.5180
2023-04-15T09:10:45.657Z,10.4091
2023-04-15T09:11:47.298Z,10.4360
2023-04-15T09:12:48.940Z,10.3054
2023-04-15T09:13:50.641Z,10.2688
2023-04-15T09:14:52.256Z,10.3294
2023-04-15T09:15:53.885Z,10.3986
2023-04-15T09:16:55.560Z,10.4069
2023-04-15T09:17:57.219Z,10.4461
2023-04-15T09:18:58.821Z,10.4547
2023-04-15T09:20:00.437Z,10.4711
2023-04-15T09:21:02.101Z,10.4976
2023-04-15T09:22:03.795Z,10.5638
2023-04-15T09:23:05.456Z,10.5714
2023-04-15T09:24:07.174Z,10.5808
2023-04-15T09:25:08.911Z,10.4590
2023-04-15T09:26:10.424Z,10.5055
2023-04-15T09:27:12.082Z,10.5874
2023-04-15T09:28:13.737Z,10.6119
2023-04-15T09:29:15.341Z,10.6293
2023-04-15T09:30:17.049Z,10.6994
2023-04-15T09:31:18.698Z,10.6973
2023-04-15T09:32:20.274Z,10.6560
2023-04-15T09:33:21.899Z,10.6494
2023-04-15T09:34:23.490Z,10.6499
2023-04-15T09:35:25.095Z,10.5687
2023-04-15T09:36:26.753Z,10.5118
2023-04-15T09:37:32.461Z,10.5948
2023-04-15T09:38:30.082Z,10.6747
2023-04-15T09:39:31.701Z,10.7102
2023-04-15T09:40:33.374Z,10.7692
2023-04-15T09:41:34.972Z,10.7618
2023-04-15T09:42:36.643Z,10.5044
2023-04-15T09:43:38.283Z,10.3282
2023-04-15T09:44:39.893Z,10.3428
2023-04-15T09:45:41.576Z,10.2746
2023-04-15T09:46:43.215Z,10.2499
2023-04-15T09:47:44.843Z,10.2512
2023-04-15T09:48:46.719Z,10.2366
2023-04-15T09:49:48.244Z,10.3103
2023-04-15T09:50:49.735Z,10.4128
2023-04-15T09:52:04.124Z,10.4685
2023-04-15T09:52:53.043Z,10.5539
2023-04-15T09:53:54.685Z,10.6230
2023-04-15T09:54:56.327Z,10.6985
2023-04-15T09:55:57.934Z,10.7524
2023-04-15T09:56:59.588Z,10.7470
2023-04-15T09:58:01.200Z,10.6702
2023-04-15T09:59:02.882Z,10.5504
2023-04-15T10:00:04.496Z,10.5677
2023-04-15T10:01:06.193Z,10.6090
2023-04-15T10:02:07.978Z,10.6455
2023-04-15T10:03:09.553Z,10.7006
2023-04-15T10:04:11.266Z,10.7665
2023-04-15T10:05:12.738Z,10.7626
2023-04-15T10:06:14.365Z,10.7536
2023-04-15T10:07:16.019Z,10.7267
2023-04-15T10:08:17.638Z,10.7070
2023-04-15T10:09:19.405Z,10.7411
2023-04-15T10:10:21.017Z,10.7460
2023-04-15T10:11:22.653Z,10.7620
2023-04-15T10:12:24.343Z,10.7137
2023-04-15T10:13:25.960Z,10.6004
2023-04-15T10:14:27.666Z,10.5320
2023-04-15T10:15:29.362Z,10.5139
2023-04-15T10:16:30.930Z,10.5433
2023-04-15T10:17:32.651Z,10.6078
2023-04-15T10:18:34.195Z,10.6907
2023-04-15T10:19:35.874Z,10.7554
2023-04-15T10:20:37.475Z,10.8152
2023-04-15T10:21:39.151Z,10.7965
2023-04-15T10:22:40.781Z,10.7750
2023-04-15T10:23:42.414Z,10.7875
2023-04-15T10:24:44.133Z,10.8049
2023-04-15T10:25:45.707Z,10.8300
2023-04-15T10:26:47.389Z,10.7945
2023-04-15T10:27:48.967Z,10.7587
2023-04-15T10:28:50.672Z,10.7238
2023-04-15T10:29:52.230Z,10.7176
2023-04-15T10:30:53.901Z,10.6844
2023-04-15T10:31:55.421Z,10.7536
2023-04-15T10:32:57.100Z,10.7632
2023-04-15T10:33:58.753Z,10.8060
2023-04-15T10:35:00.374Z,10.8214
2023-04-15T10:36:02.040Z,10.8594
2023-04-15T10:37:03.765Z,10.8150
2023-04-15T10:38:05.267Z,10.8820
2023-04-15T10:39:06.898Z,10.9795
2023-04-15T10:40:08.597Z,11.0344
2023-04-15T10:41:10.198Z,11.0849
2023-04-15T10:42:11.837Z,11.1278
2023-04-15T10:43:13.478Z,11.1463
2023-04-15T10:44:15.138Z,11.1829
2023-04-15T10:45:16.800Z,11.2053
2023-04-15T10:46:18.449Z,11.2671
2023-04-15T10:47:20.050Z,11.2821
2023-04-15T10:48:21.708Z,11.3536
2023-04-15T10:49:23.359Z,11.4060
2023-04-15T10:50:25.013Z,11.4364
2023-04-15T10:51:26.664Z,11.5204
2023-04-15T10:52:28.291Z,11.4937
2023-04-15T10:53:29.926Z,11.5021
2023-04-15T10:54:31.585Z,11.4924
2023-04-15T10:55:33.269Z,11.5695
2023-04-15T10:56:34.860Z,11.5902
2023-04-15T10:57:36.491Z,11.5989
2023-04-15T10:58:38.135Z,11.6432
2023-04-15T10:59:39.768Z,11.5040
2023-04-15T11:00:41.435Z,11.4904
2023-04-15T11:01:43.072Z,11.4787
2023-04-15T11:02:44.933Z,11.3945
2023-04-15T11:03:46.490Z,11.4136
2023-04-15T11:04:48.133Z,11.4376
2023-04-15T11:05:49.841Z,11.4380
2023-04-15T11:06:51.354Z,11.4807
2023-04-15T11:07:53.020Z,11.5413
2023-04-15T11:08:54.609Z,11.5771
2023-04-15T11:09:56.249Z,11.6422
2023-04-15T11:10:57.932Z,11.6494
2023-04-15T11:11:59.564Z,11.5814
2023-04-15T11:13:01.195Z,11.4158
2023-04-15T11:14:03.039Z,11.3556
2023-04-15T11:15:04.468Z,11.3242
2023-04-15T11:16:06.187Z,11.4288
2023-04-15T11:17:07.768Z,11.4160
2023-04-15T11:18:09.413Z,11.5005
2023-04-15T11:19:10.913Z,11.5391
2023-04-15T11:20:12.650Z,11.5391
2023-04-15T11:21:14.270Z,11.5083
2023-04-15T11:22:15.884Z,11.4594
2023-04-15T11:23:17.523Z,11.4964
2023-04-15T11:24:19.164Z,11.4452
2023-04-15T11:25:20.788Z,11.3998
2023-04-15T11:26:22.446Z,11.3784
2023-04-15T11:27:24.083Z,11.3522
2023-04-15T11:28:25.727Z,11.2634
2023-04-15T11:29:27.420Z,11.1560
2023-04-15T11:30:29.089Z,11.2521
2023-04-15T11:31:30.743Z,11.2566
2023-04-15T11:32:32.399Z,11.1488
2023-04-15T11:33:33.972Z,11.1595
2023-04-15T11:34:36.225Z,11.1901
2023-04-15T11:35:37.286Z,11.2215
2023-04-15T11:36:38.944Z,11.1952
2023-04-15T11:37:40.542Z,11.1765
2023-04-15T11:38:42.186Z,11.1808
2023-04-15T11:39:43.812Z,11.3232
2023-04-15T11:40:47.184Z,11.2912
2023-04-15T11:41:47.146Z,11.3536
2023-04-15T11:42:49.859Z,11.4029
2023-04-15T11:43:50.391Z,11.3811
2023-04-15T11:44:52.046Z,11.3953
2023-04-15T11:45:53.824Z,11.4021
2023-04-15T11:46:55.347Z,11.3976
2023-04-15T11:47:57.009Z,11.4191
2023-04-15T11:48:58.644Z,11.4138
2023-04-15T11:50:00.248Z,11.4105
2023-04-15T11:51:01.933Z,11.4226
2023-04-15T11:52:03.562Z,11.4181
2023-04-15T11:53:08.163Z,11.4906
2023-04-15T11:54:07.116Z,11.4982
2023-04-15T11:55:08.680Z,11.4976
2023-04-15T11:56:10.215Z,11.2985
2023-04-15T11:57:11.887Z,11.2143
2023-04-15T11:58:15.108Z,11.1418
2023-04-15T11:59:15.114Z,11.1808
2023-04-15T12:00:16.763Z,11.2425
2023-04-15T12:01:18.393Z,11.3793
2023-04-15T12:02:20.190Z,11.4680
2023-04-15T12:03:21.845Z,11.6007
2023-04-15T12:04:25.626Z,11.6656
2023-04-15T12:05:25.096Z,11.6968
2023-04-15T12:06:26.594Z,11.7691
2023-04-15T12:07:28.367Z,11.8540
2023-04-15T12:08:29.986Z,12.0021
2023-04-15T12:09:32.478Z,12.0575
2023-04-15T12:10:33.195Z,12.1389
2023-04-15T12:11:34.831Z,12.1797
2023-04-15T12:12:36.514Z,12.2346
2023-04-15T12:13:38.044Z,12.3250
2023-04-15T12:14:39.704Z,12.3829
2023-04-15T12:15:41.354Z,12.4425
2023-04-15T12:16:48.377Z,12.4955
2023-04-15T12:17:51.300Z,12.5061
2023-04-15T12:18:46.226Z,12.5593
2023-04-15T12:19:47.894Z,12.4051
2023-04-15T12:20:49.522Z,12.1892
2023-04-15T12:21:51.191Z,12.1793
2023-04-15T12:22:52.826Z,12.1588
2023-04-15T12:23:54.435Z,12.1397
2023-04-15T12:24:56.085Z,12.0668
2023-04-15T12:25:57.722Z,12.1142
2023-04-15T12:26:59.362Z,12.0308
2023-04-15T12:28:01.037Z,12.0378
2023-04-15T12:29:02.679Z,12.0577
2023-04-15T12:30:04.501Z,12.1274
2023-04-15T12:31:05.992Z,12.1444
2023-04-15T12:32:07.584Z,12.1999
2023-04-15T12:33:09.304Z,12.1904
2023-04-15T12:34:10.845Z,12.2030
2023-04-15T12:35:12.499Z,12.2459
2023-04-15T12:36:14.167Z,12.2786
2023-04-15T12:37:15.783Z,12.3227
2023-04-15T12:38:17.449Z,12.3404
2023-04-15T12:39:19.062Z,12.3893
2023-04-15T12:40:20.727Z,12.4178